Time;durP1;ratioP1;P1;durP2;ratioP2;P2;SDS_P1;SDS_P2;PMS_P1;PMS_P2;Temp;Humidity;BMP_temperature;BMP_pressure;BME280_temperature;BME280_humidity;BME280_pressure;Samples;Min_cycle;Max_cycle;Signal;HPM_P1;HPM_P2
2021/11/25 00:02:15;;;;;;;35.53;18.17;;;7.70;83.20;;;;;;5105163;28;20031;-83
2021/11/25 00:04:40;;;;;;;33.88;17.08;;;7.60;83.30;;;;;;5104937;28;20024;-83
2021/11/25 00:07:06;;;;;;;34.92;17.00;;;7.60;83.30;;;;;;5104192;28;20123;-83
2021/11/25 00:09:31;;;;;;;36.08;17.38;;;7.50;83.40;;;;;;5103882;28;20040;-84
2021/11/25 00:11:57;;;;;;;36.45;18.33;;;7.50;83.50;;;;;;5104236;28;20024;-82
2021/11/25 00:17:45;;;;;;;35.63;17.50;;;7.40;83.50;;;;;;5103986;28;20109;-83
2021/11/25 00:20:14;;;;;;;35.88;17.25;;;7.40;83.40;;;;;;5103412;28;20042;-83
2021/11/25 00:22:41;;;;;;;34.63;17.60;;;7.40;83.40;;;;;;5103694;28;20173;-82
2021/11/25 00:25:08;;;;;;;38.55;18.67;;;7.40;83.40;;;;;;5104300;28;20039;-83
2021/11/25 00:27:34;;;;;;;33.20;16.98;;;7.40;83.40;;;;;;5101129;28;20055;-82
2021/11/25 00:29:59;;;;;;;29.73;17.45;;;7.40;83.30;;;;;;5103312;28;20046;-83
2021/11/25 00:32:25;;;;;;;37.42;18.23;;;7.40;83.30;;;;;;5103776;28;20039;-83
2021/11/25 00:34:51;;;;;;;35.83;18.27;;;7.40;83.30;;;;;;5103851;28;20039;-83
2021/11/25 00:37:16;;;;;;;35.40;17.63;;;7.40;83.30;;;;;;5106315;28;20039;-83
2021/11/25 00:39:42;;;;;;;33.75;17.70;;;7.40;83.20;;;;;;5103764;28;20039;-82
2021/11/25 00:42:08;;;;;;;36.72;18.48;;;7.40;83.10;;;;;;5103505;28;20032;-82
2021/11/25 00:44:33;;;;;;;32.15;17.90;;;7.40;83.10;;;;;;5103726;28;20106;-82
2021/11/25 00:46:59;;;;;;;33.22;17.40;;;7.50;83.20;;;;;;5103839;28;20058;-83
2021/11/25 00:49:25;;;;;;;31.73;17.30;;;7.40;83.10;;;;;;5101493;28;20028;-83
2021/11/25 00:51:51;;;;;;;37.08;17.70;;;7.50;83.10;;;;;;5102115;28;20036;-83
2021/11/25 00:54:17;;;;;;;34.85;16.83;;;7.50;83.10;;;;;;5103352;28;20050;-83
2021/11/25 00:56:42;;;;;;;33.03;17.27;;;7.50;83.10;;;;;;5101601;28;20035;-82
2021/11/25 00:59:08;;;;;;;33.20;16.73;;;7.50;83.60;;;;;;5100509;28;20043;-83
2021/11/25 01:01:34;;;;;;;36.17;17.80;;;7.40;82.90;;;;;;5101112;28;20067;-83
2021/11/25 01:03:59;;;;;;;35.25;18.00;;;7.40;83.10;;;;;;5102466;28;20031;-83
2021/11/25 01:06:25;;;;;;;32.65;17.15;;;7.40;83.10;;;;;;5102380;28;20020;-83
2021/11/25 01:08:51;;;;;;;34.53;18.08;;;7.30;83.10;;;;;;5102030;28;20024;-83
2021/11/25 01:11:17;;;;;;;32.55;17.35;;;7.30;83.20;;;;;;5102646;28;20028;-82
2021/11/25 01:13:43;;;;;;;36.00;17.75;;;7.30;83.20;;;;;;5102439;28;20031;-82
2021/11/25 01:16:09;;;;;;;32.92;17.75;;;7.30;83.30;;;;;;5097588;28;20149;-82
2021/11/25 01:18:35;;;;;;;34.08;17.77;;;7.30;83.30;;;;;;5097516;28;20036;-83
2021/11/25 01:21:00;;;;;;;34.78;18.67;;;7.30;83.30;;;;;;5099657;28;20486;-83
2021/11/25 01:23:28;;;;;;;39.63;19.00;;;7.30;83.20;;;;;;5100602;28;20075;-83
2021/11/25 01:25:56;;;;;;;45.25;21.70;;;7.30;83.20;;;;;;5104144;28;20099;-82
2021/11/25 01:28:23;;;;;;;60.33;32.10;;;7.30;83.30;;;;;;5103069;28;20027;-84
2021/11/25 01:30:54;;;;;;;47.30;26.25;;;7.30;83.30;;;;;;5103460;28;20043;-84
2021/11/25 01:33:20;;;;;;;41.55;23.58;;;7.30;83.30;;;;;;5101900;28;20565;-83
2021/11/25 01:35:47;;;;;;;43.67;24.35;;;7.30;83.30;;;;;;5100975;28;20028;-83
2021/11/25 01:38:14;;;;;;;47.08;24.88;;;7.30;83.30;;;;;;5101466;28;20422;-84
2021/11/25 01:40:41;;;;;;;38.75;22.40;;;7.30;83.30;;;;;;5101035;28;20062;-83
2021/11/25 01:43:08;;;;;;;40.03;20.90;;;7.30;83.20;;;;;;5100956;28;20472;-84
2021/11/25 01:45:34;;;;;;;40.78;20.27;;;7.40;83.30;;;;;;5100032;28;20020;-83
2021/11/25 01:48:00;;;;;;;37.58;19.48;;;7.40;83.20;;;;;;5099898;28;20510;-83
2021/11/25 01:50:27;;;;;;;39.88;19.10;;;7.40;83.20;;;;;;5099048;28;20028;-83
2021/11/25 01:52:53;;;;;;;37.17;18.95;;;7.40;83.10;;;;;;5099038;28;20039;-83
2021/11/25 01:55:21;;;;;;;37.85;18.65;;;7.50;83.20;;;;;;5099140;28;20032;-82
2021/11/25 01:57:51;;;;;;;38.08;17.92;;;7.50;83.10;;;;;;5097550;28;20028;-82
2021/11/25 02:00:22;;;;;;;36.45;18.80;;;7.50;83.10;;;;;;5097295;28;20393;-82
2021/11/25 02:02:48;;;;;;;41.13;18.95;;;7.50;83.10;;;;;;5098777;28;20119;-82
2021/11/25 02:05:13;;;;;;;31.30;17.35;;;7.50;83.10;;;;;;5099093;28;20472;-83
2021/11/25 02:07:39;;;;;;;34.28;18.63;;;7.60;83.10;;;;;;5100607;28;20057;-82
2021/11/25 02:10:06;;;;;;;37.90;19.40;;;7.50;83.00;;;;;;5099258;28;20024;-82
2021/11/25 02:12:32;;;;;;;33.78;17.77;;;7.60;83.10;;;;;;5100471;28;20027;-83
2021/11/25 02:14:58;;;;;;;38.50;17.88;;;7.60;83.10;;;;;;5097310;28;20396;-83
2021/11/25 02:17:24;;;;;;;32.97;18.08;;;7.60;83.10;;;;;;5098618;28;20031;-83
2021/11/25 02:19:51;;;;;;;32.55;17.98;;;7.60;83.10;;;;;;5098894;28;20088;-83
2021/11/25 02:22:19;;;;;;;36.45;18.13;;;7.50;83.00;;;;;;5098386;28;20455;-83
2021/11/25 02:24:48;;;;;;;31.73;17.23;;;7.50;83.00;;;;;;5099970;28;20071;-83
2021/11/25 02:27:20;;;;;;;32.90;16.88;;;7.50;83.00;;;;;;5102063;28;20099;-83
2021/11/25 02:29:47;;;;;;;32.75;17.23;;;7.50;83.00;;;;;;5101596;28;20277;-83
2021/11/25 02:32:13;;;;;;;30.63;16.92;;;7.50;82.90;;;;;;5101780;28;20027;-82
2021/11/25 02:34:38;;;;;;;31.80;16.45;;;7.50;82.90;;;;;;5101475;28;20078;-82
2021/11/25 02:37:04;;;;;;;33.17;16.27;;;7.50;82.90;;;;;;5101206;28;20027;-83
2021/11/25 02:39:29;;;;;;;33.08;17.17;;;7.50;82.90;;;;;;5100842;28;20093;-83
2021/11/25 02:41:55;;;;;;;34.47;17.65;;;7.50;82.90;;;;;;5098851;28;20051;-83
2021/11/25 02:44:21;;;;;;;34.00;18.02;;;7.40;82.70;;;;;;5096782;28;20035;-83
2021/11/25 02:46:50;;;;;;;30.38;16.85;;;7.40;82.80;;;;;;5099574;28;20035;-84
2021/11/25 02:49:15;;;;;;;33.13;16.75;;;7.40;82.90;;;;;;5100847;28;20039;-84
2021/11/25 02:51:41;;;;;;;28.40;16.55;;;7.40;82.90;;;;;;5100273;28;20024;-85
2021/11/25 02:54:07;;;;;;;31.90;18.25;;;7.30;82.90;;;;;;5101736;28;20035;-84
2021/11/25 02:56:32;;;;;;;33.15;17.70;;;7.30;83.50;;;;;;5101632;28;20034;-83
2021/11/25 02:59:00;;;;;;;32.70;16.88;;;7.30;82.90;;;;;;5100862;28;20031;-84
2021/11/25 03:01:25;;;;;;;31.83;16.90;;;7.30;82.90;;;;;;5101789;28;20122;-84
2021/11/25 03:03:51;;;;;;;33.95;16.55;;;7.30;82.90;;;;;;5101123;28;20070;-84
2021/11/25 03:06:17;;;;;;;31.45;16.27;;;7.30;82.90;;;;;;5102662;28;20035;-84
2021/11/25 03:08:44;;;;;;;32.00;18.40;;;7.40;82.90;;;;;;5101624;28;20115;-84
2021/11/25 03:11:12;;;;;;;30.52;17.27;;;7.40;82.80;;;;;;5101691;28;20024;-84
2021/11/25 03:13:41;;;;;;;30.90;17.13;;;7.40;82.80;;;;;;5102727;28;20024;-82
2021/11/25 03:16:10;;;;;;;28.05;15.77;;;7.40;82.80;;;;;;5101869;28;20028;-84
2021/11/25 03:18:36;;;;;;;28.90;17.02;;;7.40;82.70;;;;;;5104184;28;20054;-84
2021/11/25 03:21:02;;;;;;;29.73;16.73;;;7.40;82.70;;;;;;5104627;28;20404;-83
2021/11/25 03:23:31;;;;;;;30.83;15.93;;;7.40;82.60;;;;;;5102388;28;20036;-84
2021/11/25 03:25:57;;;;;;;30.48;17.13;;;7.40;82.50;;;;;;5105603;28;20020;-84
2021/11/25 03:28:24;;;;;;;27.08;16.38;;;7.50;82.50;;;;;;5106627;28;20095;-84
2021/11/25 03:34:11;;;;;;;29.30;17.38;;;7.50;82.30;;;;;;5108687;28;20070;-83
2021/11/25 03:36:37;;;;;;;28.60;16.90;;;7.50;82.30;;;;;;5106157;28;20032;-84
2021/11/25 03:39:03;;;;;;;27.73;16.48;;;7.40;82.20;;;;;;5104748;28;20032;-83
2021/11/25 03:41:29;;;;;;;27.17;16.90;;;7.50;82.10;;;;;;5105614;28;20099;-83
2021/11/25 03:43:54;;;;;;;27.20;16.73;;;7.50;82.10;;;;;;5108620;28;20059;-84
2021/11/25 03:46:20;;;;;;;28.48;16.27;;;7.50;82.00;;;;;;5106638;28;20020;-83
2021/11/25 03:48:46;;;;;;;28.25;17.05;;;7.50;82.00;;;;;;5107180;28;20031;-83
2021/11/25 03:51:13;;;;;;;26.48;16.08;;;7.50;81.90;;;;;;5107847;28;20026;-83
2021/11/25 03:53:42;;;;;;;27.02;16.90;;;7.50;81.80;;;;;;5107093;28;20028;-83
2021/11/25 03:56:08;;;;;;;26.23;15.95;;;7.50;81.70;;;;;;5106542;28;20045;-81
2021/11/25 03:58:33;;;;;;;27.92;17.40;;;7.50;81.70;;;;;;5106591;28;20114;-82
2021/11/25 04:00:59;;;;;;;26.38;16.08;;;7.50;81.70;;;;;;5105040;28;20575;-82
2021/11/25 04:03:26;;;;;;;27.40;16.58;;;7.50;81.80;;;;;;5105348;28;20032;-83
2021/11/25 04:05:52;;;;;;;27.92;17.80;;;7.40;81.50;;;;;;5105955;28;20055;-84
2021/11/25 04:08:18;;;;;;;26.23;16.85;;;7.40;81.20;;;;;;5106019;28;20038;-82
2021/11/25 04:10:44;;;;;;;27.25;17.05;;;7.30;81.10;;;;;;5106586;28;20047;-83
2021/11/25 04:13:10;;;;;;;26.17;16.85;;;7.40;81.20;;;;;;5107788;28;20039;-83
2021/11/25 04:15:36;;;;;;;28.42;17.05;;;7.30;81.10;;;;;;5105174;28;20032;-83
2021/11/25 04:18:02;;;;;;;28.15;16.95;;;7.30;81.10;;;;;;5104375;28;20040;-83
2021/11/25 04:20:28;;;;;;;28.05;16.92;;;7.30;81.20;;;;;;5103413;28;20132;-83
2021/11/25 04:22:54;;;;;;;29.23;16.48;;;7.30;81.20;;;;;;5107516;28;20020;-83
2021/11/25 04:25:20;;;;;;;26.13;16.20;;;7.30;81.20;;;;;;5107439;28;20024;-83
2021/11/25 04:27:46;;;;;;;27.30;16.70;;;7.30;81.20;;;;;;5106042;28;20150;-85
2021/11/25 04:35:32;;;;;;;27.02;15.55;;;7.30;81.00;;;;;;5107039;28;20039;-82
2021/11/25 04:38:19;;;;;;;26.20;16.65;;;7.30;81.10;;;;;;5106665;28;20115;-83
2021/11/25 04:40:54;;;;;;;25.70;15.85;;;7.30;81.00;;;;;;5105931;28;20027;-84
2021/11/25 04:43:21;;;;;;;25.85;16.80;;;7.40;81.00;;;;;;5103576;28;20051;-84
2021/11/25 04:45:49;;;;;;;23.95;15.15;;;7.30;81.00;;;;;;5106114;28;20039;-83
2021/11/25 04:48:15;;;;;;;25.73;16.20;;;7.40;80.90;;;;;;5104795;28;20031;-83
2021/11/25 04:50:41;;;;;;;26.20;16.98;;;7.40;80.80;;;;;;5105241;28;20043;-83
2021/11/25 04:53:13;;;;;;;23.70;15.88;;;7.40;80.70;;;;;;5104687;28;20032;-83
2021/11/25 04:55:40;;;;;;;23.20;15.27;;;7.40;80.70;;;;;;5105294;28;20016;-83
2021/11/25 04:58:06;;;;;;;24.25;15.55;;;7.40;80.60;;;;;;5104395;28;20020;-82
2021/11/25 05:00:32;;;;;;;25.77;15.35;;;7.40;80.50;;;;;;5100987;28;20040;-83
2021/11/25 05:02:58;;;;;;;26.30;16.20;;;7.30;80.30;;;;;;5105520;28;20016;-83
2021/11/25 05:05:24;;;;;;;24.25;15.70;;;7.30;80.40;;;;;;5104184;28;20028;-83
2021/11/25 05:07:49;;;;;;;24.35;15.10;;;7.20;80.30;;;;;;5104797;28;20013;-82
2021/11/25 05:10:15;;;;;;;23.30;15.27;;;7.20;80.40;;;;;;5104507;28;20024;-82
2021/11/25 05:12:41;;;;;;;25.27;15.30;;;7.20;80.40;;;;;;5104380;28;20027;-82
2021/11/25 05:15:10;;;;;;;25.08;15.95;;;7.20;80.50;;;;;;5103916;28;20080;-83
2021/11/25 05:17:36;;;;;;;24.90;16.38;;;7.20;80.30;;;;;;5102309;28;20388;-82
2021/11/25 05:20:04;;;;;;;23.60;15.02;;;7.20;80.30;;;;;;5103227;28;20383;-83
2021/11/25 05:22:29;;;;;;;24.83;16.42;;;7.20;80.30;;;;;;5101789;28;20024;-83
2021/11/25 05:24:55;;;;;;;26.23;16.85;;;7.30;80.20;;;;;;5102079;28;20016;-83
2021/11/25 05:27:20;;;;;;;26.20;16.75;;;7.30;80.20;;;;;;5101474;28;20480;-83
2021/11/25 05:29:46;;;;;;;25.20;16.88;;;7.20;79.90;;;;;;5100802;28;20039;-83
2021/11/25 05:32:15;;;;;;;25.20;16.45;;;7.20;80.00;;;;;;5101683;28;20024;-83
2021/11/25 05:34:41;;;;;;;25.92;16.77;;;7.20;79.90;;;;;;5101022;28;20031;-84
2021/11/25 05:37:07;;;;;;;24.48;16.08;;;7.10;80.00;;;;;;5102544;28;20032;-84
2021/11/25 05:39:33;;;;;;;27.23;16.70;;;7.10;80.10;;;;;;5102293;28;20499;-82
2021/11/25 05:41:59;;;;;;;25.08;16.80;;;7.10;80.00;;;;;;5101636;28;20016;-84
2021/11/25 05:44:24;;;;;;;28.55;16.83;;;7.10;80.20;;;;;;5102972;28;20031;-83
2021/11/25 05:46:50;;;;;;;26.90;17.75;;;7.20;80.30;;;;;;5102747;28;20052;-83
2021/11/25 05:49:15;;;;;;;26.63;16.80;;;7.20;80.40;;;;;;5102010;28;20028;-83
2021/11/25 05:51:41;;;;;;;26.55;17.55;;;7.20;80.40;;;;;;5103968;28;20035;-83
2021/11/25 05:54:07;;;;;;;25.73;16.80;;;7.20;80.40;;;;;;5102700;28;20055;-84
2021/11/25 05:56:32;;;;;;;24.88;16.40;;;7.20;80.60;;;;;;5102182;28;20035;-83
2021/11/25 05:58:59;;;;;;;26.40;17.20;;;7.20;80.60;;;;;;5103819;28;20022;-83
2021/11/25 06:01:25;;;;;;;25.77;17.10;;;7.20;80.70;;;;;;5103653;28;20060;-83
2021/11/25 06:03:52;;;;;;;24.45;16.17;;;7.20;80.70;;;;;;5104744;28;20016;-84
2021/11/25 06:06:18;;;;;;;26.77;17.48;;;7.30;80.80;;;;;;5105940;28;20012;-82
2021/11/25 06:08:44;;;;;;;25.90;16.40;;;7.30;80.80;;;;;;5104600;28;20023;-83
2021/11/25 06:11:09;;;;;;;24.40;16.85;;;7.30;80.80;;;;;;5102160;28;20069;-83
2021/11/25 06:13:35;;;;;;;26.05;17.20;;;7.30;80.80;;;;;;5098382;28;20130;-83
2021/11/25 06:16:01;;;;;;;25.48;17.55;;;7.30;80.90;;;;;;5101501;28;20089;-84
2021/11/25 06:18:28;;;;;;;27.63;17.45;;;7.20;80.80;;;;;;5098642;28;20103;-83
2021/11/25 06:20:54;;;;;;;25.45;17.17;;;7.20;80.90;;;;;;5102238;28;20070;-83
2021/11/25 06:23:20;;;;;;;23.13;16.15;;;7.20;80.90;;;;;;5102602;28;20363;-83
2021/11/25 06:25:46;;;;;;;22.88;15.95;;;7.20;80.80;;;;;;5100964;28;20020;-83
2021/11/25 06:28:12;;;;;;;24.95;16.08;;;7.20;80.90;;;;;;5099781;28;20504;-84
2021/11/25 06:30:38;;;;;;;25.17;16.67;;;7.20;80.90;;;;;;5099665;28;20050;-84
2021/11/25 06:33:04;;;;;;;22.83;16.52;;;7.10;80.80;;;;;;5097022;28;20024;-82
2021/11/25 06:35:30;;;;;;;25.42;17.98;;;7.10;80.70;;;;;;5098292;28;20022;-83
2021/11/25 06:37:58;;;;;;;24.92;17.00;;;7.10;80.70;;;;;;5099601;28;20177;-82
2021/11/25 06:40:27;;;;;;;23.80;17.30;;;7.10;80.80;;;;;;5102206;28;20026;-82
2021/11/25 06:43:01;;;;;;;25.20;17.05;;;7.10;80.80;;;;;;5102213;28;20020;-83
2021/11/25 06:45:26;;;;;;;;;;;7.10;80.80;;;;;;5102481;28;20027;-82
2021/11/25 06:47:53;;;;;;;23.33;16.45;;;7.00;80.80;;;;;;5103439;28;19904;-82
2021/11/25 06:50:20;;;;;;;24.55;16.55;;;7.00;80.80;;;;;;5102553;28;20024;-82
2021/11/25 06:52:47;;;;;;;25.58;17.35;;;7.00;80.90;;;;;;5104957;28;20035;-83
2021/11/25 06:55:15;;;;;;;26.73;17.45;;;7.00;80.90;;;;;;5096440;28;20035;-79
2021/11/25 06:57:41;;;;;;;26.65;18.05;;;7.00;80.80;;;;;;5095313;28;20020;-81
2021/11/25 07:00:10;;;;;;;25.70;17.80;;;7.00;80.80;;;;;;5093167;28;20044;-81
2021/11/25 07:02:36;;;;;;;24.60;17.25;;;7.00;80.90;;;;;;5095426;28;20078;-82
2021/11/25 07:05:04;;;;;;;26.25;17.70;;;7.00;81.00;;;;;;5095143;28;20027;-82
2021/11/25 07:07:30;;;;;;;25.10;16.92;;;7.00;81.00;;;;;;5095623;28;20077;-80
2021/11/25 07:09:56;;;;;;;23.08;15.90;;;7.00;81.00;;;;;;5099587;28;20488;-81
2021/11/25 07:12:21;;;;;;;24.05;16.25;;;7.00;80.90;;;;;;5098741;28;20076;-80
2021/11/25 07:14:47;;;;;;;22.50;16.17;;;7.00;80.90;;;;;;5096670;28;20028;-80
2021/11/25 07:17:13;;;;;;;25.65;17.10;;;7.00;80.80;;;;;;5092054;28;20028;-78
2021/11/25 07:19:38;;;;;;;26.92;16.85;;;7.00;80.70;;;;;;5095650;28;20012;-86
2021/11/25 07:25:26;;;;;;;22.63;15.63;;;7.00;80.60;;;;;;5097591;28;20069;-84
2021/11/25 07:27:53;;;;;;;25.23;16.85;;;7.00;80.40;;;;;;5101956;28;20020;-84
2021/11/25 07:30:19;;;;;;;23.45;16.85;;;6.90;80.40;;;;;;5101156;28;20028;-82
2021/11/25 07:32:49;;;;;;;23.33;16.00;;;6.90;80.50;;;;;;5097538;28;20112;-83
2021/11/25 07:35:19;;;;;;;21.80;15.65;;;6.90;80.60;;;;;;5099119;28;20131;-83
2021/11/25 07:41:06;;;;;;;23.85;15.10;;;6.90;80.60;;;;;;5097781;28;20076;-83
2021/11/25 07:43:31;;;;;;;21.98;15.85;;;6.90;81.20;;;;;;5097421;28;20507;-83
2021/11/25 07:45:57;;;;;;;22.77;16.08;;;6.90;80.50;;;;;;5097280;28;20028;-83
2021/11/25 07:48:23;;;;;;;21.25;15.10;;;7.00;80.50;;;;;;5097497;28;20107;-82
2021/11/25 07:50:48;;;;;;;22.40;15.95;;;7.00;80.40;;;;;;5098964;28;20103;-82
2021/11/25 07:56:38;;;;;;;21.55;14.07;;;7.10;80.40;;;;;;5100305;28;20038;-83
2021/11/25 07:59:03;;;;;;;21.98;15.07;;;7.10;80.30;;;;;;5099093;28;20516;-83
2021/11/25 08:01:33;;;;;;;20.75;15.00;;;7.10;80.40;;;;;;5097151;28;20070;-84
2021/11/25 08:04:00;;;;;;;21.60;14.85;;;7.20;80.40;;;;;;5100992;28;20031;-82
2021/11/25 08:07:00;;;;;;;23.80;15.52;;;7.20;80.40;;;;;;5101749;28;20028;-84
2021/11/25 08:09:26;;;;;;;21.27;14.70;;;7.20;80.30;;;;;;5101767;28;20079;-84
2021/11/25 08:11:52;;;;;;;22.58;14.93;;;7.30;80.30;;;;;;5103917;28;20051;-83
2021/11/25 08:14:17;;;;;;;20.48;14.60;;;7.30;80.20;;;;;;5101222;28;20031;-83
2021/11/25 08:16:43;;;;;;;23.70;16.08;;;7.30;80.20;;;;;;5102595;28;20024;-83
2021/11/25 08:19:09;;;;;;;20.85;14.80;;;7.30;80.10;;;;;;5103487;28;20016;-82
2021/11/25 08:21:34;;;;;;;21.75;14.77;;;7.30;80.00;;;;;;5103187;28;20133;-83
2021/11/25 08:24:00;;;;;;;20.38;14.85;;;7.30;80.00;;;;;;5104375;28;20028;-83
2021/11/25 08:26:26;;;;;;;23.08;16.33;;;7.30;80.00;;;;;;5101343;28;20476;-82
2021/11/25 08:28:52;;;;;;;25.08;16.40;;;7.30;80.00;;;;;;5096685;28;20086;-83
2021/11/25 08:31:17;;;;;;;23.02;15.43;;;7.30;80.00;;;;;;5099733;28;20066;-83
2021/11/25 08:33:44;;;;;;;22.05;15.73;;;7.30;79.90;;;;;;5100923;28;20045;-83
2021/11/25 08:36:13;;;;;;;23.40;16.05;;;7.40;79.90;;;;;;5102220;28;20024;-82
2021/11/25 08:38:38;;;;;;;23.25;16.40;;;7.40;79.80;;;;;;5104356;28;20126;-82
2021/11/25 08:41:04;;;;;;;23.88;15.95;;;7.40;79.70;;;;;;5105771;28;20045;-82
2021/11/25 08:43:30;;;;;;;22.90;17.02;;;7.40;79.70;;;;;;5104433;28;20028;-82
2021/11/25 08:45:56;;;;;;;27.88;18.52;;;7.40;79.70;;;;;;5104188;28;20024;-82
2021/11/25 08:48:22;;;;;;;24.33;17.20;;;7.40;79.70;;;;;;5103165;28;20020;-81
2021/11/25 08:54:29;;;;;;;22.75;16.48;;;7.40;79.60;;;;;;5107132;28;20026;-83
2021/11/25 08:56:54;;;;;;;27.73;17.13;;;7.50;79.70;;;;;;5105991;28;20024;-82
2021/11/25 08:59:20;;;;;;;26.70;17.23;;;7.50;79.50;;;;;;5105750;28;20016;-83
2021/11/25 09:01:46;;;;;;;27.30;17.80;;;7.40;79.50;;;;;;5105502;28;20514;-82
2021/11/25 09:04:12;;;;;;;25.42;17.63;;;7.50;79.70;;;;;;5102694;28;20023;-82
2021/11/25 09:06:38;;;;;;;24.77;17.80;;;7.50;79.70;;;;;;5103778;28;20020;-82
2021/11/25 09:09:04;;;;;;;24.50;17.27;;;7.50;79.60;;;;;;5102951;28;20031;-83
2021/11/25 09:11:35;;;;;;;25.52;18.08;;;7.60;79.60;;;;;;5104357;28;20027;-82
2021/11/25 09:14:02;;;;;;;25.95;17.35;;;7.60;79.40;;;;;;5099664;28;20083;-82
2021/11/25 09:16:28;;;;;;;24.88;17.88;;;7.60;79.60;;;;;;5101751;28;20020;-83
2021/11/25 09:18:55;;;;;;;28.13;18.90;;;7.60;79.60;;;;;;5102704;28;20527;-82
2021/11/25 09:21:22;;;;;;;26.70;17.52;;;7.60;79.40;;;;;;5101551;28;20069;-82
2021/11/25 09:23:48;;;;;;;23.98;16.60;;;7.60;79.50;;;;;;5101426;28;20024;-82
2021/11/25 09:26:17;;;;;;;26.55;18.13;;;7.70;79.40;;;;;;5099607;28;20024;-81
2021/11/25 09:28:44;;;;;;;27.75;17.65;;;7.70;79.20;;;;;;5097905;28;20016;-81
2021/11/25 09:31:14;;;;;;;26.45;17.80;;;7.80;79.20;;;;;;5101010;28;20070;-82
2021/11/25 09:33:41;;;;;;;23.05;16.85;;;7.80;79.10;;;;;;5100590;28;20020;-82
2021/11/25 09:36:07;;;;;;;23.90;17.05;;;7.80;79.00;;;;;;5099854;28;20114;-81
2021/11/25 09:38:33;;;;;;;26.48;18.73;;;7.80;79.00;;;;;;5101030;28;20079;-82
2021/11/25 09:41:01;;;;;;;24.35;17.27;;;7.80;78.90;;;;;;5097739;28;20092;-82
2021/11/25 09:43:28;;;;;;;25.40;17.40;;;7.70;78.80;;;;;;5098548;28;20020;-82
2021/11/25 09:49:17;;;;;;;23.58;16.15;;;7.60;79.00;;;;;;5102529;28;20042;-82
2021/11/25 09:51:42;;;;;;;28.60;18.17;;;7.60;79.20;;;;;;5102214;28;20099;-82
2021/11/25 09:54:08;;;;;;;23.40;17.00;;;7.60;79.20;;;;;;5099544;28;20041;-82
2021/11/25 09:56:34;;;;;;;25.52;17.40;;;7.50;79.50;;;;;;5098528;28;20044;-82
2021/11/25 09:59:01;;;;;;;28.35;20.58;;;7.50;79.70;;;;;;5098825;28;20023;-82
2021/11/25 10:01:37;;;;;;;25.75;18.30;;;7.50;79.90;;;;;;5101562;28;20059;-83
2021/11/25 10:04:03;;;;;;;22.70;16.95;;;7.40;79.80;;;;;;5100780;28;20012;-83
2021/11/25 10:06:33;;;;;;;25.88;18.33;;;7.40;80.10;;;;;;5099053;28;20020;-83
2021/11/25 10:08:59;;;;;;;27.35;17.63;;;7.30;80.10;;;;;;5100511;28;20031;-82
2021/11/25 10:11:34;;;;;;;23.85;16.55;;;7.30;80.40;;;;;;5100721;28;20032;-82
2021/11/25 10:14:07;;;;;;;22.10;16.40;;;7.30;80.60;;;;;;5102172;28;20012;-82
2021/11/25 10:16:35;;;;;;;;;;;7.30;80.70;;;;;;5102857;28;20048;-82
2021/11/25 10:19:16;;;;;;;22.27;15.77;;;7.30;80.80;;;;;;5100466;28;19947;-82
2021/11/25 10:21:53;;;;;;;23.42;16.27;;;7.30;80.80;;;;;;5100848;28;20027;-82
2021/11/25 10:24:37;;;;;;;23.52;16.33;;;7.30;80.80;;;;;;5100818;28;20046;-82
2021/11/25 10:27:21;;;;;;;21.85;15.60;;;7.40;81.10;;;;;;5099843;28;20028;-84
2021/11/25 10:29:49;;;;;;;22.83;15.93;;;7.40;81.20;;;;;;5098316;28;20024;-82
2021/11/25 10:32:17;;;;;;;26.65;18.05;;;7.50;81.20;;;;;;5098431;28;20024;-84
2021/11/25 10:40:33;;;;;;;25.15;18.38;;;7.50;81.30;;;;;;5099188;28;20016;-82
2021/11/25 10:43:14;;;;;;;25.40;17.50;;;7.50;81.50;;;;;;5099096;28;20020;-82
2021/11/25 10:45:45;;;;;;;29.55;19.50;;;7.50;81.60;;;;;;5098176;28;20020;-83
2021/11/25 10:48:11;;;;;;;28.58;19.27;;;7.50;81.90;;;;;;5097616;28;20035;-83
2021/11/25 10:50:37;;;;;;;28.17;18.45;;;7.50;81.90;;;;;;5098642;28;20024;-83
2021/11/25 10:53:30;;;;;;;28.27;19.98;;;7.40;81.90;;;;;;5097757;28;20491;-84
2021/11/25 10:56:06;;;;;;;27.20;18.85;;;7.40;82.20;;;;;;5097467;28;20031;-82
2021/11/25 10:58:50;;;;;;;27.38;17.63;;;7.40;82.40;;;;;;5096451;28;20059;-83
2021/11/25 11:01:41;;;;;;;25.65;18.23;;;7.30;82.50;;;;;;5097418;28;20048;-83
2021/11/25 11:04:07;;;;;;;26.08;16.38;;;7.30;82.60;;;;;;5099034;28;20024;-83
2021/11/25 11:06:37;;;;;;;25.92;17.98;;;7.30;82.70;;;;;;5097732;28;20017;-83
2021/11/25 11:09:05;;;;;;;28.33;18.55;;;7.30;82.90;;;;;;5094516;28;20036;-83
2021/11/25 11:11:32;;;;;;;27.23;18.00;;;7.30;82.90;;;;;;5097382;28;20039;-82
2021/11/25 11:14:26;;;;;;;31.55;19.38;;;7.40;83.10;;;;;;5098757;28;20024;-83
2021/11/25 11:17:25;;;;;;;25.30;17.15;;;7.40;83.10;;;;;;5100515;28;20066;-83
2021/11/25 11:20:10;;;;;;;25.58;17.58;;;7.40;82.90;;;;;;5098035;28;20111;-81
2021/11/25 11:22:36;;;;;;;29.05;18.05;;;7.50;83.00;;;;;;5096581;28;20051;-81
2021/11/25 11:25:04;;;;;;;29.30;19.13;;;7.50;83.10;;;;;;5097958;28;20020;-81
2021/11/25 11:27:30;;;;;;;28.50;19.73;;;7.50;83.10;;;;;;5097098;28;20020;-80
2021/11/25 11:29:56;;;;;;;35.17;23.33;;;7.60;83.10;;;;;;5096699;28;20492;-82
2021/11/25 11:32:22;;;;;;;33.42;21.35;;;7.60;83.10;;;;;;5094242;28;20039;-81
2021/11/25 11:34:51;;;;;;;35.28;21.40;;;7.60;83.30;;;;;;5096889;28;20045;-82
2021/11/25 11:37:20;;;;;;;34.20;21.42;;;7.60;83.30;;;;;;5099804;28;20019;-83
2021/11/25 11:39:47;;;;;;;36.60;21.05;;;7.60;83.50;;;;;;5100637;28;20020;-81
2021/11/25 11:42:17;;;;;;;34.05;22.70;;;7.60;83.60;;;;;;5099496;28;20395;-80
2021/11/25 11:44:45;;;;;;;36.63;21.40;;;7.70;83.60;;;;;;5096745;28;20020;-81
2021/11/25 11:47:13;;;;;;;32.28;21.63;;;7.60;83.50;;;;;;5098098;28;20081;-80
2021/11/25 11:49:43;;;;;;;38.17;22.77;;;7.70;83.70;;;;;;5098021;28;20016;-80
2021/11/25 11:55:38;;;;;;;39.88;23.85;;;7.70;83.80;;;;;;5096932;28;20111;-80
2021/11/25 11:58:28;;;;;;;33.45;21.02;;;7.70;83.80;;;;;;5096179;28;20024;-80
2021/11/25 12:01:06;;;;;;;39.05;23.33;;;7.70;83.90;;;;;;5080049;28;20047;-80
2021/11/25 12:03:43;;;;;;;37.38;21.63;;;7.70;83.90;;;;;;5080356;28;20043;-81
2021/11/25 12:06:09;;;;;;;41.25;22.92;;;7.80;84.00;;;;;;5077973;28;20016;-80
2021/11/25 12:08:41;;;;;;;39.33;23.20;;;7.90;84.20;;;;;;5080258;28;20034;-80
2021/11/25 12:11:10;;;;;;;40.10;24.43;;;7.90;84.20;;;;;;5080316;28;20028;-81
2021/11/25 12:13:38;;;;;;;39.55;22.92;;;7.90;84.20;;;;;;5080387;28;20024;-82
2021/11/25 12:16:26;;;;;;;38.40;23.85;;;7.90;84.20;;;;;;5080007;28;20040;-82
2021/11/25 12:18:57;;;;;;;39.15;22.40;;;8.00;84.30;;;;;;5079823;28;20031;-82
2021/11/25 12:21:31;;;;;;;37.88;22.05;;;7.90;84.20;;;;;;5079479;28;20028;-81
2021/11/25 12:24:37;;;;;;;39.20;23.45;;;8.00;84.30;;;;;;5079802;28;20046;-82
2021/11/25 12:27:26;;;;;;;33.08;21.80;;;8.10;84.30;;;;;;5055437;28;20041;-81
2021/11/25 12:29:58;;;;;;;37.83;22.38;;;8.10;84.20;;;;;;5039742;28;20051;-82
2021/11/25 12:32:48;;;;;;;38.42;23.48;;;8.10;84.20;;;;;;5078548;28;20518;-82
2021/11/25 12:35:13;;;;;;;37.25;22.45;;;8.20;84.30;;;;;;5097866;28;20016;-81
2021/11/25 12:37:49;;;;;;;34.25;21.85;;;8.20;84.30;;;;;;5096978;28;20028;-81
2021/11/25 12:43:41;;;;;;;35.97;21.67;;;8.30;84.30;;;;;;5098593;28;20077;-81
2021/11/25 12:46:16;;;;;;;35.78;22.05;;;8.30;84.30;;;;;;5098173;28;20624;-81
2021/11/25 12:48:51;;;;;;;36.92;23.55;;;8.30;84.30;;;;;;5097747;28;20176;-81
2021/11/25 12:51:23;;;;;;;37.83;22.88;;;8.40;84.40;;;;;;5098423;28;20519;-81
2021/11/25 12:53:56;;;;;;;37.92;22.45;;;8.40;84.30;;;;;;5097357;28;20050;-82
2021/11/25 12:56:33;;;;;;;39.50;21.83;;;8.40;84.30;;;;;;5097592;28;20052;-82
2021/11/25 12:59:03;;;;;;;38.97;22.92;;;8.50;84.30;;;;;;5096683;28;20447;-82
2021/11/25 13:01:44;;;;;;;34.15;20.95;;;8.50;84.20;;;;;;5096137;28;20568;-82
2021/11/25 13:04:17;;;;;;;33.67;20.90;;;8.50;84.20;;;;;;5096823;28;20020;-82
2021/11/25 13:06:48;;;;;;;36.17;21.52;;;8.60;84.30;;;;;;5096275;28;20019;-82
2021/11/25 13:09:23;;;;;;;38.35;21.77;;;8.70;84.10;;;;;;5095678;28;20016;-82
2021/11/25 13:11:50;;;;;;;34.28;21.20;;;8.70;84.10;;;;;;5095939;28;20031;-82
2021/11/25 13:14:18;;;;;;;37.70;21.45;;;8.70;84.10;;;;;;5098202;28;20374;-81
2021/11/25 13:16:47;;;;;;;39.67;22.80;;;8.70;84.10;;;;;;5078521;28;20036;-81
2021/11/25 13:19:15;;;;;;;39.40;22.75;;;8.70;84.20;;;;;;5078619;28;20028;-81
2021/11/25 13:21:47;;;;;;;37.08;21.65;;;8.80;84.30;;;;;;5096607;28;20036;-81
2021/11/25 13:24:38;;;;;;;35.28;21.13;;;8.80;84.30;;;;;;5078892;28;20476;-82
2021/11/25 13:27:18;;;;;;;39.85;24.13;;;8.80;84.30;;;;;;5078812;28;20032;-81